createdAt,value
2022-10-05T00:02:05.497Z,101423.63
2022-10-05T00:07:13.820Z,101433.09
2022-10-05T00:12:18.081Z,101424.13
2022-10-05T00:17:23.925Z,101412.38
2022-10-05T00:22:31.951Z,101409.47
2022-10-05T00:27:38.840Z,101409.22
2022-10-05T00:32:43.117Z,101416.03
2022-10-05T00:37:46.589Z,101413.06
2022-10-05T00:42:57.190Z,101413.78
2022-10-05T00:48:14.729Z,101418.16
2022-10-05T00:53:31.555Z,101400.50
2022-10-05T00:58:47.777Z,101403.22
2022-10-05T01:04:02.057Z,101397.97
2022-10-05T01:09:12.784Z,101404.16
2022-10-05T01:14:20.767Z,101388.25
2022-10-05T01:19:50.142Z,101381.31
2022-10-05T01:25:07.219Z,101388.41
2022-10-05T01:30:14.004Z,101394.69
2022-10-05T01:35:30.646Z,101393.69
2022-10-05T01:40:40.341Z,101402.34
2022-10-05T01:45:57.347Z,101385.69
2022-10-05T01:51:12.418Z,101392.03
2022-10-05T01:56:23.627Z,101385.13
2022-10-05T02:01:33.223Z,101372.94
2022-10-05T02:06:41.472Z,101359.75
2022-10-05T02:11:48.570Z,101353.56
2022-10-05T02:16:56.146Z,101342.09
2022-10-05T02:22:05.922Z,101337.75
2022-10-05T02:27:12.081Z,101349.13
2022-10-05T02:32:23.095Z,101341.13
2022-10-05T02:37:36.284Z,101328.03
2022-10-05T02:42:50.085Z,101325.31
2022-10-05T02:48:02.448Z,101333.13
2022-10-05T02:53:20.666Z,101330.41
2022-10-05T02:58:26.926Z,101319.00
2022-10-05T03:03:37.951Z,101331.31
2022-10-05T03:08:47.873Z,101331.38
2022-10-05T03:14:00.510Z,101346.47
2022-10-05T03:19:17.812Z,101346.56
2022-10-05T03:24:43.131Z,101340.19
2022-10-05T03:29:53.211Z,101333.06
2022-10-05T03:35:04.671Z,101332.97
2022-10-05T03:40:16.647Z,101326.75
2022-10-05T03:45:25.785Z,101316.13
2022-10-05T03:50:45.448Z,101308.88
2022-10-05T03:55:52.978Z,101300.06
2022-10-05T04:01:02.903Z,101283.28
2022-10-05T04:06:13.457Z,101278.81
2022-10-05T04:11:21.270Z,101283.06
2022-10-05T04:16:27.915Z,101282.09
2022-10-05T04:21:36.129Z,101270.66
2022-10-05T04:26:44.793Z,101262.47
2022-10-05T04:32:00.432Z,101259.94
2022-10-05T04:37:09.391Z,101261.66
2022-10-05T04:42:19.351Z,101271.38
2022-10-05T04:47:38.534Z,101261.66
2022-10-05T04:52:56.219Z,101268.66
2022-10-05T04:58:09.951Z,101263.22
2022-10-05T05:03:33.057Z,101266.59
2022-10-05T05:08:51.251Z,101265.50
2022-10-05T05:14:16.140Z,101274.19
2022-10-05T05:19:39.883Z,101280.97
2022-10-05T05:24:56.494Z,101272.03
2022-10-05T05:30:04.976Z,101271.81
2022-10-05T05:35:29.223Z,101267.31
2022-10-05T05:40:37.090Z,101262.84
2022-10-05T05:45:43.220Z,101263.75
2022-10-05T05:50:54.384Z,101267.38
2022-10-05T05:56:06.317Z,101269.28
2022-10-05T06:01:31.684Z,101268.53
2022-10-05T06:06:39.224Z,101265.25
2022-10-05T06:11:49.084Z,101261.06
2022-10-05T06:16:56.259Z,101262.31
2022-10-05T06:22:05.267Z,101264.38
2022-10-05T06:27:37.771Z,101260.34
2022-10-05T06:33:03.785Z,101245.59
2022-10-05T06:38:22.071Z,101235.41
2022-10-05T06:43:38.971Z,101248.81
2022-10-05T06:48:50.168Z,101252.69
2022-10-05T06:54:04.551Z,101246.94
2022-10-05T06:59:14.890Z,101248.28
2022-10-05T07:04:35.988Z,101253.13
2022-10-05T07:09:49.796Z,101257.00
2022-10-05T07:15:08.299Z,101244.13
2022-10-05T07:20:18.529Z,101245.50
2022-10-05T07:25:25.178Z,101252.09
2022-10-05T07:30:32.085Z,101241.78
2022-10-05T07:36:06.264Z,101238.69
2022-10-05T07:41:15.801Z,101245.28
2022-10-05T07:46:25.138Z,101241.03
2022-10-05T07:51:36.108Z,101250.25
2022-10-05T07:56:43.428Z,101256.00
2022-10-05T08:01:51.978Z,101253.75
2022-10-05T08:06:57.612Z,101256.81
2022-10-05T08:12:10.525Z,101250.19
2022-10-05T08:17:25.719Z,101254.38
2022-10-05T08:22:32.789Z,101241.59
2022-10-05T08:27:43.474Z,101241.19
2022-10-05T08:32:53.888Z,101245.16
2022-10-05T08:37:57.974Z,101236.16
2022-10-05T08:43:10.391Z,101248.13
2022-10-05T08:48:27.790Z,101252.31
2022-10-05T08:53:52.734Z,101244.00
2022-10-05T08:59:35.059Z,101242.75
2022-10-05T09:04:54.716Z,101243.25
2022-10-05T09:10:25.496Z,101242.84
2022-10-05T09:16:05.336Z,101241.66
2022-10-05T09:21:21.601Z,101240.63
2022-10-05T09:26:44.239Z,101236.88
2022-10-05T09:32:14.236Z,101236.53
2022-10-05T09:37:53.431Z,101239.59
2022-10-05T09:43:11.989Z,101234.75
2022-10-05T09:48:48.319Z,101237.63
2022-10-05T09:54:29.207Z,101241.56
2022-10-05T10:00:08.732Z,101233.22
2022-10-05T10:05:32.814Z,101216.97
2022-10-05T10:11:14.340Z,101220.25
2022-10-05T10:16:28.275Z,101204.22
2022-10-05T10:21:50.271Z,101203.28
2022-10-05T10:27:07.656Z,101189.19
2022-10-05T10:32:29.997Z,101190.59
2022-10-05T10:38:15.073Z,101172.38
2022-10-05T10:43:51.588Z,101169.34
2022-10-05T10:48:58.537Z,101162.63
2022-10-05T10:54:44.289Z,101155.78
2022-10-05T11:00:25.326Z,101163.09
2022-10-05T11:05:38.670Z,101150.91
2022-10-05T11:11:07.986Z,101145.69
2022-10-05T11:16:32.225Z,101145.97
2022-10-05T11:21:46.193Z,101147.88
2022-10-05T11:27:13.470Z,101141.03
2022-10-05T11:32:42.632Z,101138.41
2022-10-05T11:38:02.675Z,101133.22
2022-10-05T11:43:33.814Z,101133.22
2022-10-05T11:49:06.803Z,101124.59
2022-10-05T11:54:23.138Z,101124.47
2022-10-05T11:59:34.477Z,101107.56
2022-10-05T12:04:49.844Z,101111.53
2022-10-05T12:10:17.042Z,101118.72
2022-10-05T12:15:26.339Z,101107.56
2022-10-05T12:20:39.559Z,101105.69
2022-10-05T12:25:47.111Z,101107.53
2022-10-05T12:31:04.745Z,101104.75
2022-10-05T12:36:15.414Z,101100.25
2022-10-05T12:41:23.351Z,101100.28
2022-10-05T12:46:35.368Z,101100.41
2022-10-05T12:51:43.496Z,101099.75
2022-10-05T12:56:54.327Z,101095.81
2022-10-05T13:02:08.740Z,101095.94
2022-10-05T13:07:38.488Z,101102.88
2022-10-05T13:12:55.099Z,101084.00
2022-10-05T13:18:12.000Z,101080.19
2022-10-05T13:23:25.313Z,101078.38
2022-10-05T13:28:34.648Z,101079.38
2022-10-05T13:33:57.264Z,101069.44
2022-10-05T13:39:06.589Z,101068.38
2022-10-05T13:44:19.025Z,101064.69
2022-10-05T13:49:26.528Z,101064.72
2022-10-05T13:54:43.805Z,101058.34
2022-10-05T13:59:54.318Z,101064.28
2022-10-05T14:05:01.729Z,101066.84
2022-10-05T14:10:14.268Z,101055.19
2022-10-05T14:15:22.651Z,101058.84
2022-10-05T14:20:27.344Z,101061.63
2022-10-05T14:25:32.851Z,101062.59
2022-10-05T14:30:35.767Z,101059.97
2022-10-05T14:35:50.882Z,101057.31
2022-10-05T14:41:20.225Z,101062.47
2022-10-05T14:46:28.181Z,101064.09
2022-10-05T14:51:33.161Z,101054.19
2022-10-05T14:56:46.160Z,101046.88
2022-10-05T15:01:55.941Z,101041.69
2022-10-05T15:07:12.077Z,101039.88
2022-10-05T15:12:23.389Z,101039.81
2022-10-05T15:17:32.205Z,101038.94
2022-10-05T15:22:44.889Z,101042.47
2022-10-05T15:28:07.325Z,101047.47
2022-10-05T15:33:19.216Z,101029.50
2022-10-05T15:38:25.816Z,101032.66
2022-10-05T15:43:42.016Z,101033.28
2022-10-05T15:48:51.960Z,101043.78
2022-10-05T15:54:16.314Z,101034.81
2022-10-05T15:59:32.849Z,101037.38
2022-10-05T16:04:48.561Z,101042.56
2022-10-05T16:09:57.755Z,101039.66
2022-10-05T16:15:26.478Z,101040.22
2022-10-05T16:20:38.731Z,101033.88
2022-10-05T16:25:52.494Z,101038.13
2022-10-05T16:31:02.227Z,101035.28
2022-10-05T16:36:18.029Z,101028.88
2022-10-05T16:41:29.559Z,101026.25
2022-10-05T16:46:40.894Z,101032.63
2022-10-05T16:51:54.040Z,101027.47
2022-10-05T16:57:03.028Z,101026.81
2022-10-05T17:02:19.174Z,101023.56
2022-10-05T17:07:44.637Z,101036.22
2022-10-05T17:13:00.277Z,101039.91
2022-10-05T17:18:23.550Z,101035.25
2022-10-05T17:23:37.055Z,101037.66
2022-10-05T17:28:42.505Z,101039.19
2022-10-05T17:34:26.432Z,101042.59
2022-10-05T17:39:50.632Z,101037.09
2022-10-05T17:44:56.710Z,101041.25
2022-10-05T17:50:18.694Z,101041.03
2022-10-05T17:55:39.337Z,101037.28
2022-10-05T18:01:07.011Z,101046.88
2022-10-05T18:06:39.133Z,101041.25
2022-10-05T18:11:44.524Z,101054.25
2022-10-05T18:17:01.334Z,101059.28
2022-10-05T18:22:27.743Z,101057.28
2022-10-05T18:27:54.178Z,101068.50
2022-10-05T18:33:23.231Z,101070.91
2022-10-05T18:38:44.421Z,101074.19
2022-10-05T18:43:57.872Z,101074.78
2022-10-05T18:49:10.567Z,101070.88
2022-10-05T18:54:29.927Z,101073.38
2022-10-05T18:59:45.236Z,101068.00
2022-10-05T19:05:02.117Z,101067.97
2022-10-05T19:10:16.021Z,101077.72
2022-10-05T19:15:25.864Z,101071.44
2022-10-05T19:20:35.644Z,101080.22
2022-10-05T19:25:48.251Z,101068.75
2022-10-05T19:31:14.150Z,101069.53
2022-10-05T19:36:39.672Z,101062.31
2022-10-05T19:41:57.914Z,101064.78
2022-10-05T19:47:02.820Z,101063.78
2022-10-05T19:52:13.643Z,101049.56
2022-10-05T19:57:18.764Z,101044.03
2022-10-05T20:02:27.271Z,101038.34
2022-10-05T20:07:30.999Z,101035.25
2022-10-05T20:12:52.098Z,101037.56
2022-10-05T20:18:12.520Z,101038.94
2022-10-05T20:23:23.416Z,101028.06
2022-10-05T20:28:34.084Z,101035.56
2022-10-05T20:33:37.038Z,101026.31
2022-10-05T20:38:41.289Z,101031.31
2022-10-05T20:43:45.468Z,101008.03
2022-10-05T20:48:48.158Z,101022.78
2022-10-05T20:53:50.831Z,101020.75
2022-10-05T20:58:54.884Z,101019.84
2022-10-05T21:03:57.627Z,101023.19
2022-10-05T21:09:00.627Z,101023.06
2022-10-05T21:14:05.828Z,101032.66
2022-10-05T21:19:09.823Z,101025.41
2022-10-05T21:24:14.383Z,101032.25
2022-10-05T21:29:18.436Z,101033.88
2022-10-05T21:34:21.114Z,101023.94
2022-10-05T21:39:24.708Z,101022.88
2022-10-05T21:44:28.837Z,101036.03
2022-10-05T21:49:31.569Z,101031.44
2022-10-05T21:54:35.043Z,101033.28
2022-10-05T21:59:39.381Z,101035.09
2022-10-05T22:04:42.226Z,101029.84
2022-10-05T22:09:45.293Z,101030.13
2022-10-05T22:14:49.650Z,101040.19
2022-10-05T22:19:52.540Z,101031.72
2022-10-05T22:24:55.517Z,101021.00
2022-10-05T22:30:00.069Z,101027.13
2022-10-05T22:35:03.333Z,101023.44
2022-10-05T22:40:09.883Z,101014.16
2022-10-05T22:45:14.250Z,101027.59
2022-10-05T22:50:17.079Z,101037.41
2022-10-05T22:55:19.962Z,101037.47
2022-10-05T23:00:35.129Z,101045.53
2022-10-05T23:05:43.378Z,101047.25
2022-10-05T23:10:46.049Z,101045.56
2022-10-05T23:15:50.737Z,101045.63
2022-10-05T23:20:57.196Z,101063.34
2022-10-05T23:26:00.470Z,101063.28
2022-10-05T23:31:07.295Z,101059.81
2022-10-05T23:36:13.474Z,101077.72
2022-10-05T23:41:17.274Z,101077.09
2022-10-05T23:46:21.394Z,101089.50
2022-10-05T23:51:24.174Z,101094.16
2022-10-05T23:56:26.858Z,101103.16
